Time;durP1;ratioP1;P1;durP2;ratioP2;P2;SDS_P1;SDS_P2;PMS_P1;PMS_P2;Temp;Humidity;BMP_temperature;BMP_pressure;BME280_temperature;BME280_humidity;BME280_pressure;Samples;Min_cycle;Max_cycle;Signal;HPM_P1;HPM_P2
2023/04/26 00:00:47;;;;;;;10.10;2.40;;;;;;;3.18;83.51;100882.08;109346;1253;75192;-69
2023/04/26 00:03:13;;;;;;;9.20;2.30;;;;;;;3.18;83.76;100882.20;109034;1253;70087;-69
2023/04/26 00:05:41;;;;;;;8.00;2.20;;;;;;;3.21;83.56;100883.02;109286;1253;72410;-69
2023/04/26 00:08:09;;;;;;;7.30;1.90;;;;;;;3.22;83.51;100881.23;109016;1254;61215;-69
2023/04/26 00:10:36;;;;;;;9.80;2.50;;;;;;;3.22;83.23;100883.80;109183;1254;59082;-69
2023/04/26 00:13:02;;;;;;;9.80;2.30;;;;;;;3.21;83.46;100883.36;109283;1253;73830;-69
2023/04/26 00:15:30;;;;;;;6.60;2.00;;;;;;;3.21;83.37;100887.98;109173;1254;70734;-69
2023/04/26 00:17:57;;;;;;;8.20;2.10;;;;;;;3.19;83.57;100880.91;109119;1254;71126;-69
2023/04/26 00:20:24;;;;;;;7.90;2.00;;;;;;;3.19;83.50;100883.23;109120;1254;59940;-69
2023/04/26 00:22:52;;;;;;;7.20;2.10;;;;;;;3.20;83.34;100884.16;109348;1252;60183;-69
2023/04/26 00:25:18;;;;;;;8.20;2.30;;;;;;;3.20;83.32;100882.41;109281;1252;73824;-69
2023/04/26 00:27:45;;;;;;;7.00;2.30;;;;;;;3.20;83.06;100879.98;109164;1252;70081;-69
2023/04/26 00:30:12;;;;;;;7.60;1.90;;;;;;;3.18;83.09;100882.11;109240;1253;72403;-69
2023/04/26 00:32:39;;;;;;;7.50;2.20;;;;;;;3.17;83.45;100884.76;109115;1254;59918;-69
2023/04/26 00:35:06;;;;;;;6.30;2.00;;;;;;;3.16;83.37;100886.26;109165;1254;59159;-69
2023/04/26 00:37:33;;;;;;;7.80;2.00;;;;;;;3.18;82.99;100885.20;109298;1253;74507;-69
2023/04/26 00:40:00;;;;;;;8.30;2.10;;;;;;;3.18;82.99;100884.18;109127;1253;70882;-69
2023/04/26 00:42:27;;;;;;;6.20;2.20;;;;;;;3.15;83.24;100883.91;109247;1253;72446;-70
2023/04/26 00:44:56;;;;;;;6.80;2.00;;;;;;;3.13;83.30;100886.86;109265;1253;60904;-69
2023/04/26 00:47:24;;;;;;;8.80;2.20;;;;;;;3.10;83.55;100884.43;109346;1253;60126;-69
2023/04/26 00:49:52;;;;;;;5.70;2.10;;;;;;;3.09;83.69;100881.23;109115;1253;75392;-69
2023/04/26 00:52:18;;;;;;;6.10;1.90;;;;;;;3.07;83.47;100880.65;109147;1252;70898;-69
2023/04/26 00:54:47;;;;;;;6.10;1.80;;;;;;;3.05;83.99;100885.06;109325;1253;72804;-69
2023/04/26 00:57:14;;;;;;;6.00;1.80;;;;;;;3.01;84.11;100882.69;109074;1254;61261;-69
2023/04/26 00:59:41;;;;;;;8.50;2.10;;;;;;;3.01;84.05;100884.33;109093;1253;59170;-69
2023/04/26 01:02:08;;;;;;;7.30;2.60;;;;;;;2.99;84.41;100887.95;109141;1254;74828;-69
2023/04/26 01:04:36;;;;;;;8.90;2.50;;;;;;;2.98;84.30;100888.19;109288;1253;71144;-69
2023/04/26 01:07:03;;;;;;;7.00;1.80;;;;;;;2.97;84.53;100889.86;109310;1252;72505;-69
2023/04/26 01:09:31;;;;;;;9.90;2.40;;;;;;;2.95;84.57;100889.99;109281;1253;60137;-69
2023/04/26 01:11:59;;;;;;;8.60;2.20;;;;;;;2.94;84.59;100899.52;109002;1252;60057;-69
2023/04/26 01:14:26;;;;;;;7.60;2.10;;;;;;;2.90;84.62;100900.06;109021;1252;74762;-69
2023/04/26 01:16:53;;;;;;;8.80;2.30;;;;;;;2.88;84.86;100898.58;109263;1253;70101;-69
2023/04/26 01:19:20;;;;;;;7.50;2.30;;;;;;;2.87;84.93;100900.41;109020;1253;72720;-69
2023/04/26 01:21:47;;;;;;;7.70;2.30;;;;;;;2.89;84.82;100902.20;109047;1254;61606;-69
2023/04/26 01:24:13;;;;;;;8.70;2.00;;;;;;;2.88;84.72;100905.23;109199;1256;61135;-69
2023/04/26 01:26:46;;;;;;;7.70;2.10;;;;;;;2.89;84.71;100898.92;109189;1253;73924;-69
2023/04/26 01:29:18;;;;;;;9.20;2.50;;;;;;;2.87;84.74;100903.25;109064;1252;70941;-69
2023/04/26 01:31:46;;;;;;;11.10;2.60;;;;;;;2.84;84.81;100903.39;109266;1252;72879;-69
2023/04/26 01:34:13;;;;;;;8.30;2.10;;;;;;;2.85;84.85;100904.92;108963;1254;59699;-69
2023/04/26 01:36:40;;;;;;;5.90;2.10;;;;;;;2.84;84.57;100909.54;108906;1252;60344;-69
2023/04/26 01:39:08;;;;;;;10.60;2.50;;;;;;;2.85;84.79;100907.91;109069;1253;74852;-69
2023/04/26 01:41:34;;;;;;;5.90;2.00;;;;;;;2.86;84.41;100906.59;108857;1254;71009;-69
2023/04/26 01:44:01;;;;;;;8.00;2.20;;;;;;;2.83;84.68;100908.38;109207;1252;72735;-69
2023/04/26 01:46:28;;;;;;;8.80;2.70;;;;;;;2.83;84.68;100904.87;109128;1254;60344;-69
2023/04/26 01:48:56;;;;;;;6.30;2.00;;;;;;;2.82;84.75;100910.42;109044;1254;59652;-69
2023/04/26 01:51:23;;;;;;;8.50;2.30;;;;;;;2.82;84.74;100912.68;109202;1253;73462;-69
2023/04/26 01:53:49;;;;;;;7.60;2.30;;;;;;;2.80;84.65;100915.45;108943;1254;71831;-69
2023/04/26 01:56:17;;;;;;;8.30;2.00;;;;;;;2.79;84.99;100918.44;109103;1253;72189;-69
2023/04/26 01:58:44;;;;;;;7.40;2.00;;;;;;;2.79;84.99;100912.73;108880;1254;60567;-68
2023/04/26 02:01:11;;;;;;;8.60;2.50;;;;;;;2.79;84.80;100913.07;109181;1253;60148;-69
2023/04/26 02:03:38;;;;;;;6.20;2.30;;;;;;;2.79;84.98;100914.10;109107;1254;73880;-69
2023/04/26 02:06:05;;;;;;;7.70;2.00;;;;;;;2.78;85.17;100911.92;109172;1253;69606;-69
2023/04/26 02:08:32;;;;;;;7.20;2.20;;;;;;;2.77;84.86;100912.87;109285;1253;71438;-69
2023/04/26 02:10:59;;;;;;;10.50;2.20;;;;;;;2.75;85.00;100912.14;109201;1253;61192;-69
2023/04/26 02:13:25;;;;;;;6.90;1.80;;;;;;;2.74;85.23;100911.52;109313;1253;60181;-69
2023/04/26 02:15:52;;;;;;;9.10;2.50;;;;;;;2.74;85.22;100913.34;109281;1252;74760;-69
2023/04/26 02:18:20;;;;;;;11.70;2.60;;;;;;;2.71;85.14;100914.77;109051;1253;70658;-69
2023/04/26 02:20:48;;;;;;;5.80;2.20;;;;;;;2.71;85.30;100915.30;109312;1253;72748;-69
2023/04/26 02:23:14;;;;;;;6.40;2.00;;;;;;;2.71;85.22;100913.04;109096;1253;59921;-69
2023/04/26 02:25:45;;;;;;;8.60;2.40;;;;;;;2.69;85.29;100912.65;109259;1253;59739;-69
2023/04/26 02:28:12;;;;;;;7.20;2.10;;;;;;;2.69;85.23;100909.88;109339;1253;75978;-69
2023/04/26 02:30:39;;;;;;;7.40;2.70;;;;;;;2.66;85.10;100910.26;109056;1253;72073;-69
2023/04/26 02:33:06;;;;;;;9.30;2.50;;;;;;;2.63;85.67;100913.13;109151;1253;71464;-69
2023/04/26 02:35:35;;;;;;;8.10;2.80;;;;;;;2.60;85.41;100911.42;109019;1252;383725;-69
2023/04/26 02:38:02;;;;;;;10.60;2.40;;;;;;;2.59;85.42;100917.06;109185;1253;59117;-69
2023/04/26 02:40:29;;;;;;;6.10;2.40;;;;;;;2.55;85.78;100918.62;109220;1252;74851;-69
2023/04/26 02:42:56;;;;;;;10.10;2.80;;;;;;;2.53;85.88;100922.46;109319;1253;70632;-69
2023/04/26 02:45:23;;;;;;;8.60;2.60;;;;;;;2.53;85.74;100918.77;109240;1252;71218;-69
2023/04/26 02:47:49;;;;;;;10.50;2.40;;;;;;;2.49;85.84;100915.40;109235;1253;60340;-69
2023/04/26 02:50:16;;;;;;;9.50;2.40;;;;;;;2.47;85.95;100915.20;109253;1253;60300;-69
2023/04/26 02:52:43;;;;;;;8.60;2.50;;;;;;;2.45;86.12;100918.69;109291;1252;74310;-69
2023/04/26 02:55:10;;;;;;;7.30;2.40;;;;;;;2.43;86.08;100919.29;109052;1253;70155;-69
2023/04/26 02:57:36;;;;;;;7.40;2.60;;;;;;;2.41;86.34;100920.04;109164;1254;71470;-69
2023/04/26 03:00:04;;;;;;;10.40;2.90;;;;;;;2.39;86.13;100916.87;108916;1253;59884;-69
2023/04/26 03:02:31;;;;;;;8.50;2.60;;;;;;;2.37;86.16;100912.67;109296;1252;60269;-69
2023/04/26 03:04:58;;;;;;;9.90;2.50;;;;;;;2.35;86.35;100911.73;109130;1253;73436;-69
2023/04/26 03:07:25;;;;;;;8.80;2.60;;;;;;;2.34;86.06;100911.43;109158;1253;70090;-69
2023/04/26 03:09:51;;;;;;;8.60;2.80;;;;;;;2.32;86.38;100912.48;109107;1253;70976;-69
2023/04/26 03:12:18;;;;;;;8.70;2.50;;;;;;;2.29;86.66;100916.34;109108;1253;59731;-69
2023/04/26 03:14:45;;;;;;;7.80;2.50;;;;;;;2.27;86.58;100910.30;109289;1253;60149;-69
2023/04/26 03:17:12;;;;;;;7.30;2.50;;;;;;;2.24;86.68;100912.39;109290;1253;73435;-69
2023/04/26 03:19:38;;;;;;;8.70;2.80;;;;;;;2.21;87.09;100911.75;109271;1253;70539;-70
2023/04/26 03:22:11;;;;;;;9.30;2.80;;;;;;;2.19;87.29;100912.45;109126;1254;71769;-69
2023/04/26 03:24:38;;;;;;;9.70;2.70;;;;;;;2.17;87.34;100912.26;109147;1253;59955;-69
2023/04/26 03:27:04;;;;;;;6.70;3.20;;;;;;;2.13;87.87;100912.58;109257;1253;60189;-69
2023/04/26 03:29:31;;;;;;;4.80;2.10;;;;;;;2.12;87.83;100913.86;109296;1252;73521;-69
2023/04/26 03:31:58;;;;;;;9.10;2.80;;;;;;;2.11;88.31;100912.64;108941;1253;71027;-69
2023/04/26 03:34:26;;;;;;;11.00;3.20;;;;;;;2.12;88.36;100909.84;109263;1252;72449;-69
2023/04/26 03:36:53;;;;;;;8.30;3.00;;;;;;;2.12;88.20;100909.09;109320;1253;59696;-69
2023/04/26 03:39:19;;;;;;;9.20;3.20;;;;;;;2.12;88.52;100909.34;109284;1253;59332;-69
2023/04/26 03:41:46;;;;;;;13.90;3.10;;;;;;;2.11;88.67;100906.94;109294;1253;74703;-70
2023/04/26 03:44:14;;;;;;;9.80;2.80;;;;;;;2.10;88.94;100906.85;109032;1252;70741;-69
2023/04/26 03:46:40;;;;;;;8.30;2.70;;;;;;;2.10;88.79;100909.83;109120;1253;72526;-69
2023/04/26 03:49:07;;;;;;;10.50;2.90;;;;;;;2.11;88.69;100900.18;109143;1252;60778;-69
2023/04/26 03:51:34;;;;;;;10.20;2.80;;;;;;;2.10;88.70;100907.00;109104;1253;60207;-69
2023/04/26 03:54:01;;;;;;;9.90;3.30;;;;;;;2.08;88.71;100906.66;109259;1253;74359;-69
2023/04/26 03:56:28;;;;;;;10.80;3.60;;;;;;;2.09;89.07;100908.96;109029;1256;70658;-69
2023/04/26 03:58:55;;;;;;;11.90;3.50;;;;;;;2.08;88.80;100909.76;109133;1254;71137;-69
2023/04/26 04:01:22;;;;;;;8.80;2.70;;;;;;;2.08;88.60;100915.01;109258;1253;60744;-69
2023/04/26 04:03:49;;;;;;;11.20;3.20;;;;;;;2.06;89.11;100922.16;109113;1253;60003;-69
2023/04/26 04:06:16;;;;;;;9.60;3.00;;;;;;;2.04;89.45;100921.76;109161;1254;73197;-69
2023/04/26 04:08:43;;;;;;;12.50;3.20;;;;;;;2.06;89.32;100919.71;109125;1253;71071;-69
2023/04/26 04:11:09;;;;;;;9.30;3.10;;;;;;;2.09;89.05;100919.45;109250;1253;71419;-69
2023/04/26 04:13:36;;;;;;;7.90;3.20;;;;;;;2.12;89.43;100918.56;109142;1252;60014;-69
2023/04/26 04:16:04;;;;;;;12.70;3.30;;;;;;;2.15;89.26;100920.96;109189;1253;59276;-69
2023/04/26 04:18:31;;;;;;;7.50;3.00;;;;;;;2.15;89.14;100922.65;109155;1254;74731;-69
2023/04/26 04:20:57;;;;;;;7.80;2.80;;;;;;;2.17;89.17;100922.02;109133;1253;69644;-69
2023/04/26 04:23:24;;;;;;;10.00;3.20;;;;;;;2.17;89.30;100920.05;109230;1253;71471;-70
2023/04/26 04:25:51;;;;;;;12.00;3.40;;;;;;;2.18;89.13;100926.08;109188;1253;60910;-69
2023/04/26 04:28:17;;;;;;;8.80;3.70;;;;;;;2.20;89.03;100926.27;109288;1253;59282;-70
2023/04/26 04:30:45;;;;;;;12.20;3.30;;;;;;;2.22;89.32;100921.92;109137;1253;73252;-69
2023/04/26 04:33:12;;;;;;;8.10;2.80;;;;;;;2.29;89.04;100927.09;109062;1253;69994;-69
2023/04/26 04:35:40;;;;;;;11.50;3.50;;;;;;;2.31;88.91;100927.61;109223;1253;73908;-71
2023/04/26 04:38:08;;;;;;;6.40;2.80;;;;;;;2.37;88.63;100926.73;109002;1253;59949;-71
2023/04/26 04:40:34;;;;;;;9.50;3.00;;;;;;;2.48;88.64;100931.73;109019;1253;59223;-71
2023/04/26 04:43:02;;;;;;;8.80;2.90;;;;;;;2.56;88.08;100934.05;109320;1253;75733;-71
2023/04/26 04:45:29;;;;;;;9.60;3.10;;;;;;;2.65;88.02;100935.11;109089;1253;69756;-71
2023/04/26 04:47:56;;;;;;;9.90;3.10;;;;;;;2.76;87.92;100933.72;109222;1253;72658;-72
2023/04/26 04:50:23;;;;;;;8.20;2.80;;;;;;;2.87;87.46;100938.86;109334;1252;60991;-72
2023/04/26 04:52:49;;;;;;;8.70;2.90;;;;;;;2.98;87.06;100937.84;109324;1252;59349;-71
2023/04/26 04:55:16;;;;;;;8.50;2.80;;;;;;;3.05;86.53;100937.80;109247;1253;75643;-71
2023/04/26 04:57:43;;;;;;;8.00;2.80;;;;;;;3.12;86.17;100933.75;109358;1252;69982;-72
2023/04/26 05:00:11;;;;;;;11.30;3.20;;;;;;;3.20;86.03;100937.13;109303;1252;71028;-72
2023/04/26 05:02:38;;;;;;;9.70;2.50;;;;;;;3.27;85.50;100934.00;109286;1252;59201;-73
2023/04/26 05:05:05;;;;;;;8.80;3.00;;;;;;;3.32;85.15;100938.12;109087;1253;59172;-71
2023/04/26 05:07:33;;;;;;;8.30;3.10;;;;;;;3.37;85.23;100938.82;109324;1253;74530;-72
2023/04/26 05:10:00;;;;;;;9.20;3.10;;;;;;;3.42;84.53;100940.30;109189;1254;69966;-70
2023/04/26 05:12:26;;;;;;;8.40;2.70;;;;;;;3.45;84.18;100941.45;109205;1253;72647;-73
2023/04/26 05:14:53;;;;;;;8.30;2.60;;;;;;;3.48;83.85;100938.25;109193;1252;59769;-71
2023/04/26 05:17:20;;;;;;;7.40;2.70;;;;;;;3.48;83.55;100947.64;109338;1253;60360;-72
2023/04/26 05:19:47;;;;;;;10.20;3.00;;;;;;;3.49;83.61;100942.71;109333;1253;74651;-71
2023/04/26 05:22:17;;;;;;;10.40;3.10;;;;;;;3.53;83.72;100943.77;109090;1257;71181;-71
2023/04/26 05:24:46;;;;;;;9.80;2.70;;;;;;;3.54;83.27;100946.19;109186;1254;72521;-71
2023/04/26 05:27:13;;;;;;;7.10;2.80;;;;;;;3.51;83.39;100948.88;108937;1254;62004;-72
2023/04/26 05:29:40;;;;;;;7.00;2.90;;;;;;;3.51;83.40;100953.05;109255;1252;60222;-71
2023/04/26 05:32:07;;;;;;;9.50;2.30;;;;;;;3.52;83.60;100954.00;109193;1252;75342;-71
2023/04/26 05:34:35;;;;;;;10.30;2.60;;;;;;;3.54;83.41;100954.89;109261;1253;71207;-71
2023/04/26 05:37:02;;;;;;;10.00;2.90;;;;;;;3.56;83.57;100957.54;109349;1252;70107;-71
2023/04/26 05:39:29;;;;;;;9.40;2.40;;;;;;;3.61;83.37;100963.28;109324;1253;59868;-72
2023/04/26 05:41:56;;;;;;;13.10;3.30;;;;;;;3.66;83.21;100965.12;109346;1252;59225;-72
2023/04/26 05:44:23;;;;;;;8.80;2.70;;;;;;;3.74;82.76;100968.56;109349;1254;73235;-71
2023/04/26 05:46:50;;;;;;;7.70;2.80;;;;;;;3.81;82.59;100968.48;109320;1253;69356;-71
2023/04/26 05:49:16;;;;;;;8.50;2.90;;;;;;;3.88;82.62;100970.86;109340;1252;72435;-72
2023/04/26 05:51:43;;;;;;;8.00;2.60;;;;;;;3.94;81.89;100978.80;109318;1253;58947;-71
2023/04/26 05:54:10;;;;;;;9.30;2.80;;;;;;;3.98;81.35;100973.59;109345;1254;58966;-71
2023/04/26 05:56:37;;;;;;;9.30;3.20;;;;;;;4.03;81.40;100973.88;109214;1254;72508;-71
2023/04/26 05:59:04;;;;;;;8.40;2.60;;;;;;;4.09;81.17;100972.00;109233;1254;70780;-71
2023/04/26 06:01:31;;;;;;;8.00;2.60;;;;;;;4.17;80.90;100971.31;109266;1252;71185;-71
2023/04/26 06:03:57;;;;;;;11.80;2.70;;;;;;;4.27;80.89;100972.11;109327;1253;60900;-70
2023/04/26 06:06:27;;;;;;;8.50;2.70;;;;;;;4.39;80.58;100973.66;109293;1253;59849;-71
2023/04/26 06:08:54;;;;;;;7.20;2.80;;;;;;;4.48;79.60;100973.11;109139;1256;73439;-72
2023/04/26 06:11:21;;;;;;;8.40;2.70;;;;;;;4.55;79.22;100974.34;109240;1253;71325;-71
2023/04/26 06:13:48;;;;;;;7.90;2.50;;;;;;;4.65;79.14;100970.48;109302;1254;72542;-70
2023/04/26 06:16:15;;;;;;;6.10;2.20;;;;;;;4.75;78.82;100971.53;109147;1253;60504;-70
2023/04/26 06:18:42;;;;;;;12.30;2.90;;;;;;;4.79;78.54;100972.46;109201;1252;60436;-72
2023/04/26 06:21:09;;;;;;;8.10;2.70;;;;;;;4.84;77.84;100977.23;109340;1254;73505;-70
2023/04/26 06:23:36;;;;;;;11.00;2.80;;;;;;;4.89;77.14;100982.48;109182;1253;71212;-70
2023/04/26 06:26:02;;;;;;;7.90;2.50;;;;;;;4.92;76.61;100981.19;109206;1254;71440;-69
2023/04/26 06:28:29;;;;;;;5.40;2.20;;;;;;;4.98;76.70;100981.58;109213;1253;59659;-70
2023/04/26 06:30:56;;;;;;;8.50;3.00;;;;;;;5.05;76.78;100982.70;109367;1253;59970;-70
2023/04/26 06:33:23;;;;;;;9.10;2.00;;;;;;;5.11;76.38;100982.55;109227;1252;74652;-69
2023/04/26 06:35:50;;;;;;;7.50;2.50;;;;;;;5.15;75.68;100982.02;109314;1254;70573;-70
2023/04/26 06:38:17;;;;;;;6.90;2.10;;;;;;;5.22;75.66;100986.68;109337;1252;71224;-71
2023/04/26 06:40:43;;;;;;;10.00;2.40;;;;;;;5.29;75.10;100992.52;109347;1254;62574;-72
2023/04/26 06:43:10;;;;;;;6.90;2.10;;;;;;;5.36;75.46;100991.09;109375;1253;59096;-71
2023/04/26 06:45:37;;;;;;;9.20;2.60;;;;;;;5.48;75.27;100989.85;109313;1254;59425;-71
2023/04/26 06:48:04;;;;;;;7.70;2.20;;;;;;;5.61;74.84;100987.40;109326;1253;69988;-71
2023/04/26 06:50:30;;;;;;;10.20;2.60;;;;;;;5.75;74.40;100993.08;109232;1252;71690;-71
2023/04/26 06:52:57;;;;;;;9.00;2.30;;;;;;;5.93;74.53;100991.86;109217;1253;60887;-71
2023/04/26 06:55:24;;;;;;;9.00;2.80;;;;;;;6.01;72.80;101002.02;109348;1253;60067;-71
2023/04/26 06:57:50;;;;;;;5.90;2.60;;;;;;;6.04;72.12;100995.38;109228;1254;74017;-70
2023/04/26 07:00:17;;;;;;;11.20;2.80;;;;;;;6.16;71.97;100990.54;109157;1254;70955;-70
2023/04/26 07:02:44;;;;;;;9.20;2.50;;;;;;;6.24;71.60;100996.29;109288;1253;71288;-70
2023/04/26 07:05:11;;;;;;;8.90;2.30;;;;;;;6.27;71.30;100999.35;109207;1252;59957;-70
2023/04/26 07:07:39;;;;;;;12.80;3.60;;;;;;;6.27;71.08;100992.34;109401;1253;60436;-71
2023/04/26 07:10:07;;;;;;;6.40;2.40;;;;;;;6.35;71.39;100992.05;109326;1253;73550;-70
2023/04/26 07:12:34;;;;;;;8.70;2.20;;;;;;;6.46;69.12;100998.34;109344;1253;70146;-71
2023/04/26 07:15:01;;;;;;;5.60;2.00;;;;;;;6.58;68.75;100994.77;109215;1254;72302;-70
2023/04/26 07:17:28;;;;;;;7.90;2.00;;;;;;;6.61;67.97;101007.16;109029;1254;59533;-70
2023/04/26 07:19:55;;;;;;;6.60;2.00;;;;;;;6.62;67.42;101001.90;109302;1252;59647;-70
2023/04/26 07:22:21;;;;;;;6.70;1.80;;;;;;;6.72;68.02;100999.98;109316;1253;73864;-70
2023/04/26 07:24:49;;;;;;;8.20;2.10;;;;;;;6.76;68.36;101004.48;109308;1253;72450;-70
2023/04/26 07:31:03;;;;;;;5.70;2.00;;;;;;;6.85;68.00;101000.00;109336;1253;59641;-71
2023/04/26 07:33:34;;;;;;;8.40;2.30;;;;;;;6.84;67.47;101008.04;109342;1253;59123;-70
2023/04/26 07:36:01;;;;;;;8.40;2.30;;;;;;;6.87;66.81;100998.34;109407;1253;74400;-70
2023/04/26 07:38:28;;;;;;;7.60;2.20;;;;;;;7.02;67.47;101001.95;109351;1254;71838;-70
2023/04/26 07:40:54;;;;;;;6.70;2.40;;;;;;;7.19;67.49;101007.19;109325;1253;58404;-71
2023/04/26 07:43:22;;;;;;;6.80;2.20;;;;;;;7.31;66.24;101007.59;109222;1252;59054;-70
2023/04/26 07:45:48;;;;;;;6.80;2.00;;;;;;;7.46;66.59;101011.98;109223;1252;59202;-71
2023/04/26 07:48:15;;;;;;;5.80;1.80;;;;;;;7.64;66.49;101005.51;109353;1253;73293;-70
2023/04/26 07:50:42;;;;;;;7.90;2.30;;;;;;;7.72;64.61;101005.55;109257;1253;69906;-70
2023/04/26 07:53:09;;;;;;;7.50;2.10;;;;;;;7.76;64.44;101011.73;109312;1253;70829;-70
2023/04/26 07:55:36;;;;;;;7.20;2.40;;;;;;;7.75;63.32;101016.05;109241;1257;59734;-70
2023/04/26 07:58:03;;;;;;;6.30;2.00;;;;;;;7.78;64.04;101006.83;109216;1253;59133;-70
2023/04/26 08:00:29;;;;;;;6.30;2.20;;;;;;;7.78;64.03;101007.52;109338;1256;74745;-70
2023/04/26 08:02:56;;;;;;;5.10;1.80;;;;;;;7.79;64.08;101013.02;109321;1254;70514;-70
2023/04/26 08:05:23;;;;;;;6.10;2.00;;;;;;;7.81;63.54;101011.48;109335;1254;71956;-70
2023/04/26 08:07:50;;;;;;;7.30;2.00;;;;;;;7.86;63.80;101010.98;109294;1252;60419;-70
2023/04/26 08:10:17;;;;;;;6.10;2.00;;;;;;;7.91;62.74;101009.64;109351;1254;60612;-70
2023/04/26 08:12:43;;;;;;;10.40;1.90;;;;;;;8.00;62.37;101012.27;109204;1253;58978;-71
2023/04/26 08:15:10;;;;;;;7.20;1.90;;;;;;;8.06;61.98;101010.25;109369;1254;71032;-70
2023/04/26 08:17:37;;;;;;;6.50;1.80;;;;;;;8.07;60.61;101017.19;109328;1253;72780;-70
2023/04/26 08:20:05;;;;;;;5.50;1.80;;;;;;;8.10;60.42;101019.73;109320;1253;59689;-71
2023/04/26 08:22:31;;;;;;;6.50;1.80;;;;;;;8.23;61.03;101004.45;109413;1253;59040;-71
2023/04/26 08:24:57;;;;;;;7.00;1.90;;;;;;;8.37;60.82;101007.54;109375;1253;59081;-71
2023/04/26 08:27:24;;;;;;;5.00;1.80;;;;;;;8.42;60.54;101004.80;109373;1254;59000;-71
2023/04/26 08:29:51;;;;;;;4.60;1.50;;;;;;;8.48;60.44;101004.89;109376;1253;71734;-71
2023/04/26 08:32:17;;;;;;;4.30;1.80;;;;;;;8.61;58.89;101005.69;109362;1253;59279;-71
2023/04/26 08:34:44;;;;;;;6.30;1.70;;;;;;;8.77;59.22;101010.28;109356;1253;59431;-71
2023/04/26 08:37:11;;;;;;;5.00;1.80;;;;;;;8.73;57.98;101003.62;109340;1253;73365;-70
2023/04/26 08:39:38;;;;;;;6.00;1.70;;;;;;;8.67;57.88;101001.25;109341;1253;68746;-70
2023/04/26 08:42:13;;;;;;;5.90;2.10;;;;;;;8.64;57.61;101004.04;109299;1252;59523;-70
2023/04/26 08:44:43;;;;;;;5.40;1.60;;;;;;;8.70;56.98;101010.46;109209;1252;59073;-70
2023/04/26 08:47:13;;;;;;;4.00;1.60;;;;;;;8.62;54.70;101004.50;109354;1253;59180;-70
2023/04/26 08:49:42;;;;;;;4.70;1.50;;;;;;;8.90;55.64;101001.34;109399;1254;73177;-70
2023/04/26 08:52:11;;;;;;;6.00;1.90;;;;;;;9.25;56.04;101008.94;109410;1253;69580;-70
2023/04/26 08:54:39;;;;;;;6.80;1.60;;;;;;;9.40;53.15;101006.95;109242;1253;72554;-71
2023/04/26 08:57:07;;;;;;;6.90;1.70;;;;;;;9.49;52.90;101009.06;109332;1254;60469;-71
2023/04/26 08:59:35;;;;;;;4.50;1.40;;;;;;;9.44;52.79;101013.98;109371;1254;60684;-71
2023/04/26 09:02:06;;;;;;;5.90;1.90;;;;;;;9.27;52.49;101008.84;109403;1253;74811;-70
2023/04/26 09:04:34;;;;;;;6.10;1.50;;;;;;;9.10;52.18;101010.14;109285;1253;69762;-70
2023/04/26 09:07:06;;;;;;;4.60;1.40;;;;;;;8.99;52.28;101010.49;109190;1253;72506;-70
2023/04/26 09:09:40;;;;;;;5.20;1.50;;;;;;;9.07;52.90;101006.73;109084;1253;59011;-70
2023/04/26 09:12:07;;;;;;;5.90;1.40;;;;;;;9.30;52.36;101005.16;109373;1254;59794;-70
2023/04/26 09:14:34;;;;;;;4.60;1.50;;;;;;;9.44;52.69;101007.13;109213;1253;74685;-71
2023/04/26 09:17:01;;;;;;;4.40;1.10;;;;;;;9.65;49.45;101004.02;109248;1254;70313;-71
2023/04/26 09:19:35;;;;;;;5.10;1.50;;;;;;;9.83;48.21;101003.77;109378;1254;72431;-70
2023/04/26 09:22:03;;;;;;;5.50;1.20;;;;;;;9.95;47.84;101001.58;109312;1254;60449;-70
2023/04/26 09:24:51;;;;;;;5.20;1.50;;;;;;;10.03;46.87;101014.52;109209;1254;59670;-70
2023/04/26 09:27:18;;;;;;;4.90;1.50;;;;;;;10.29;47.23;101003.48;109223;1253;74561;-71
2023/04/26 09:30:14;;;;;;;5.40;1.60;;;;;;;10.27;47.51;101004.22;109231;1254;70120;-70
2023/04/26 09:32:44;;;;;;;5.70;1.50;;;;;;;10.29;48.10;101011.59;109197;1258;71488;-72
2023/04/26 09:35:34;;;;;;;7.60;1.40;;;;;;;10.39;48.82;101010.38;109380;1252;61642;-70
2023/04/26 09:38:02;;;;;;;4.50;1.30;;;;;;;10.11;47.10;101020.21;109161;1254;58989;-71
2023/04/26 09:40:40;;;;;;;3.90;1.30;;;;;;;9.96;46.77;101014.36;109195;1254;75666;-72
2023/04/26 09:43:11;;;;;;;4.30;1.30;;;;;;;10.08;46.90;101016.66;109102;1252;71828;-72
2023/04/26 09:45:54;;;;;;;5.50;1.60;;;;;;;10.29;47.49;101014.54;109384;1254;72746;-70
2023/04/26 09:48:25;;;;;;;3.10;1.40;;;;;;;10.21;46.20;101013.86;109263;1253;61617;-70
2023/04/26 09:50:54;;;;;;;4.10;1.20;;;;;;;10.19;45.72;101012.60;109195;1254;60383;-70
2023/04/26 09:53:27;;;;;;;6.10;1.50;;;;;;;10.24;46.38;101010.55;109119;1254;75391;-71
2023/04/26 09:55:56;;;;;;;5.70;1.50;;;;;;;10.31;45.92;101011.61;109375;1254;70027;-70
2023/04/26 09:58:22;;;;;;;4.60;1.20;;;;;;;10.41;46.50;101007.10;109362;1252;71130;-70
2023/04/26 10:00:50;;;;;;;5.60;1.50;;;;;;;10.44;44.82;101018.47;109215;1254;59001;-70
2023/04/26 10:03:21;;;;;;;4.50;1.20;;;;;;;10.44;43.61;101012.63;109148;1253;60061;-70
2023/04/26 10:05:49;;;;;;;7.60;1.40;;;;;;;10.34;43.91;101008.80;109344;1254;75163;-70
2023/04/26 10:08:16;;;;;;;5.30;1.20;;;;;;;10.14;44.98;101019.55;109372;1254;70921;-70
2023/04/26 10:10:44;;;;;;;7.10;1.50;;;;;;;9.94;45.13;101021.64;109306;1256;72680;-70
2023/04/26 10:13:11;;;;;;;5.50;1.60;;;;;;;9.77;46.00;101019.70;109269;1253;60452;-70
2023/04/26 10:15:39;;;;;;;3.70;1.20;;;;;;;9.59;47.43;101028.86;109278;1253;59125;-70
2023/04/26 10:18:07;;;;;;;7.30;1.70;;;;;;;9.47;48.45;101021.51;109229;1253;73327;-70
2023/04/26 10:20:39;;;;;;;5.00;1.60;;;;;;;9.35;48.38;101028.11;109008;1254;71303;-71
2023/04/26 10:23:19;;;;;;;3.40;1.30;;;;;;;9.26;46.55;101024.13;109233;1253;72758;-70
2023/04/26 10:25:47;;;;;;;6.20;1.60;;;;;;;9.28;47.21;101016.39;109353;1253;59111;-70
2023/04/26 10:28:15;;;;;;;3.20;1.10;;;;;;;9.30;47.36;101016.66;109275;1254;60525;-69
2023/04/26 10:30:58;;;;;;;2.90;1.10;;;;;;;9.38;46.62;101017.09;109254;1254;73133;-70
2023/04/26 10:33:26;;;;;;;7.50;1.80;;;;;;;9.49;47.22;101013.83;109255;1254;70027;-70
2023/04/26 10:36:12;;;;;;;4.60;1.60;;;;;;;9.56;47.68;101013.49;109411;1254;74668;-69
2023/04/26 10:38:41;;;;;;;3.00;1.10;;;;;;;9.67;48.04;101010.86;109213;1253;59832;-69
2023/04/26 10:41:32;;;;;;;5.10;1.50;;;;;;;9.84;47.24;101010.24;109237;1253;58972;-70
2023/04/26 10:44:19;;;;;;;4.40;1.30;;;;;;;10.13;45.12;101006.56;109205;1254;74349;-70
2023/04/26 10:46:52;;;;;;;4.70;1.20;;;;;;;10.48;45.32;101005.25;109294;1253;69111;-70
2023/04/26 10:49:21;;;;;;;3.80;0.90;;;;;;;10.76;42.93;100997.36;109377;1253;71244;-71
2023/04/26 10:52:12;;;;;;;3.30;1.10;;;;;;;10.85;41.39;100994.35;109356;1254;59846;-70
2023/04/26 10:54:56;;;;;;;3.00;1.30;;;;;;;10.77;41.82;100994.73;109399;1253;59112;-70
2023/04/26 10:57:47;;;;;;;3.60;1.30;;;;;;;10.54;44.33;100997.71;109368;1254;75826;-70
2023/04/26 11:00:25;;;;;;;4.70;1.50;;;;;;;10.34;45.78;101008.85;108981;1253;69711;-70
2023/04/26 11:03:01;;;;;;;5.10;1.60;;;;;;;10.17;47.02;101006.80;109235;1253;72767;-70
2023/04/26 11:05:43;;;;;;;3.00;1.20;;;;;;;10.14;47.16;101009.41;109163;1254;59111;-71
2023/04/26 11:08:16;;;;;;;4.40;1.40;;;;;;;10.15;47.01;101009.61;109373;1254;59187;-70
2023/04/26 11:10:50;;;;;;;3.70;1.50;;;;;;;10.32;45.99;101001.16;109130;1254;73142;-70
2023/04/26 11:13:20;;;;;;;3.80;1.00;;;;;;;10.57;45.29;100997.45;109234;1254;71360;-71
2023/04/26 11:15:52;;;;;;;2.80;1.20;;;;;;;10.68;42.49;100987.91;109255;1254;70705;-70
2023/04/26 11:18:20;;;;;;;3.10;1.30;;;;;;;10.84;42.53;100991.43;109329;1253;59159;-70
2023/04/26 11:20:47;;;;;;;3.70;1.20;;;;;;;10.83;42.85;100996.31;109367;1254;59085;-70
2023/04/26 11:23:14;;;;;;;4.20;1.10;;;;;;;11.03;43.21;100988.00;109201;1253;73596;-71
2023/04/26 11:25:40;;;;;;;3.10;1.40;;;;;;;11.13;41.06;100996.04;109248;1254;71174;-71
2023/04/26 11:28:07;;;;;;;4.50;1.20;;;;;;;11.10;40.49;100991.55;109171;1254;72609;-71
2023/04/26 11:30:34;;;;;;;4.10;1.60;;;;;;;11.01;40.59;100995.56;109369;1254;58957;-71
2023/04/26 11:33:03;;;;;;;3.10;1.30;;;;;;;10.90;41.31;100998.27;109314;1253;60477;-71